createdAt,value
2022-10-19T00:01:43.816Z,100.00
2022-10-19T00:04:10.510Z,100.00
2022-10-19T00:06:37.482Z,100.00
2022-10-19T00:09:08.787Z,100.00
2022-10-19T00:11:38.426Z,100.00
2022-10-19T00:14:06.683Z,100.00
2022-10-19T00:16:37.609Z,100.00
2022-10-19T00:19:08.174Z,100.00
2022-10-19T00:21:35.396Z,100.00
2022-10-19T00:24:02.086Z,100.00
2022-10-19T00:26:28.752Z,100.00
2022-10-19T00:28:56.262Z,100.00
2022-10-19T00:31:23.380Z,100.00
2022-10-19T00:33:50.527Z,100.00
2022-10-19T00:36:28.304Z,100.00
2022-10-19T00:38:56.229Z,100.00
2022-10-19T00:41:25.917Z,100.00
2022-10-19T00:44:27.385Z,100.00
2022-10-19T00:46:56.970Z,100.00
2022-10-19T00:49:27.385Z,100.00
2022-10-19T00:51:57.198Z,100.00
2022-10-19T00:54:25.390Z,100.00
2022-10-19T00:56:55.029Z,100.00
2022-10-19T00:59:24.892Z,100.00
2022-10-19T01:01:53.096Z,100.00
2022-10-19T01:04:24.930Z,100.00
2022-10-19T01:06:53.553Z,100.00
2022-10-19T01:09:20.601Z,100.00
2022-10-19T01:12:21.708Z,100.00
2022-10-19T01:14:48.286Z,100.00
2022-10-19T01:17:20.522Z,100.00
2022-10-19T01:20:22.046Z,100.00
2022-10-19T01:22:54.720Z,100.00
2022-10-19T01:25:40.028Z,100.00
2022-10-19T01:28:15.475Z,100.00
2022-10-19T01:31:03.970Z,100.00
2022-10-19T01:33:33.746Z,100.00
2022-10-19T01:36:03.364Z,100.00
2022-10-19T01:38:38.374Z,100.00
2022-10-19T01:41:24.698Z,100.00
2022-10-19T01:44:11.495Z,100.00
2022-10-19T01:46:56.862Z,100.00
2022-10-19T01:49:23.401Z,100.00
2022-10-19T01:51:55.617Z,100.00
2022-10-19T01:54:26.226Z,100.00
2022-10-19T01:56:55.134Z,100.00
2022-10-19T01:59:23.607Z,100.00
2022-10-19T02:01:53.601Z,100.00
2022-10-19T02:04:23.002Z,100.00
2022-10-19T02:06:52.667Z,100.00
2022-10-19T02:09:20.264Z,100.00
2022-10-19T02:11:53.355Z,100.00
2022-10-19T02:14:28.795Z,100.00
2022-10-19T02:17:02.744Z,100.00
2022-10-19T02:19:30.064Z,100.00
2022-10-19T02:21:57.262Z,100.00
2022-10-19T02:24:24.026Z,100.00
2022-10-19T02:26:51.577Z,100.00
2022-10-19T02:29:18.489Z,100.00
2022-10-19T02:31:45.540Z,100.00
2022-10-19T02:34:13.298Z,100.00
2022-10-19T02:36:40.069Z,100.00
2022-10-19T02:39:07.534Z,100.00
2022-10-19T02:41:39.627Z,100.00
2022-10-19T02:44:14.483Z,100.00
2022-10-19T02:46:50.666Z,100.00
2022-10-19T02:49:18.191Z,100.00
2022-10-19T02:52:03.967Z,100.00
2022-10-19T02:54:32.299Z,100.00
2022-10-19T02:56:59.281Z,100.00
2022-10-19T02:59:27.054Z,100.00
2022-10-19T03:01:53.721Z,100.00
2022-10-19T03:04:20.385Z,100.00
2022-10-19T03:06:47.265Z,100.00
2022-10-19T03:09:13.931Z,100.00
2022-10-19T03:11:40.649Z,100.00
2022-10-19T03:14:07.303Z,100.00
2022-10-19T03:16:34.087Z,100.00
2022-10-19T03:19:00.738Z,100.00
2022-10-19T03:21:27.366Z,100.00
2022-10-19T03:23:56.369Z,100.00
2022-10-19T03:26:22.997Z,100.00
2022-10-19T03:28:49.659Z,100.00
2022-10-19T03:31:16.386Z,100.00
2022-10-19T03:33:43.137Z,100.00
2022-10-19T03:36:37.874Z,100.00
2022-10-19T03:39:08.133Z,100.00
2022-10-19T03:41:36.513Z,100.00
2022-10-19T03:44:04.177Z,100.00
2022-10-19T03:46:31.194Z,100.00
2022-10-19T03:48:58.302Z,100.00
2022-10-19T03:51:27.782Z,100.00
2022-10-19T03:53:58.246Z,100.00
2022-10-19T03:56:26.494Z,100.00
2022-10-19T03:58:55.081Z,100.00
2022-10-19T04:01:27.816Z,100.00
2022-10-19T04:04:02.357Z,100.00
2022-10-19T04:06:34.920Z,100.00
2022-10-19T04:09:03.318Z,100.00
2022-10-19T04:11:31.037Z,100.00
2022-10-19T04:13:58.971Z,100.00
2022-10-19T04:16:27.831Z,100.00
2022-10-19T04:18:55.210Z,100.00
2022-10-19T04:21:24.756Z,100.00
2022-10-19T04:23:53.178Z,100.00
2022-10-19T04:26:20.957Z,100.00
2022-10-19T04:28:47.641Z,100.00
2022-10-19T04:31:14.786Z,100.00
2022-10-19T04:33:41.671Z,100.00
2022-10-19T04:36:10.753Z,100.00
2022-10-19T04:38:37.725Z,100.00
2022-10-19T04:41:06.757Z,100.00
2022-10-19T04:43:33.491Z,100.00
2022-10-19T04:46:08.326Z,100.00
2022-10-19T04:48:37.454Z,100.00
2022-10-19T04:51:04.579Z,100.00
2022-10-19T04:53:32.405Z,100.00
2022-10-19T04:55:59.492Z,100.00
2022-10-19T04:58:27.503Z,100.00
2022-10-19T05:00:54.533Z,100.00
2022-10-19T05:03:21.220Z,100.00
2022-10-19T05:05:47.839Z,100.00
2022-10-19T05:08:14.510Z,100.00
2022-10-19T05:10:44.224Z,100.00
2022-10-19T05:13:14.124Z,100.00
2022-10-19T05:15:40.743Z,100.00
2022-10-19T05:18:07.501Z,100.00
2022-10-19T05:20:34.187Z,100.00
2022-10-19T05:23:06.173Z,100.00
2022-10-19T05:25:34.119Z,100.00
2022-10-19T05:28:00.726Z,100.00
2022-10-19T05:30:27.476Z,100.00
2022-10-19T05:32:54.121Z,100.00
2022-10-19T05:35:22.607Z,100.00
2022-10-19T05:37:54.558Z,100.00
2022-10-19T05:40:21.280Z,100.00
2022-10-19T05:42:47.954Z,100.00
2022-10-19T05:45:14.663Z,100.00
2022-10-19T05:47:41.334Z,100.00
2022-10-19T05:50:08.373Z,100.00
2022-10-19T05:52:35.083Z,100.00
2022-10-19T05:55:01.720Z,100.00
2022-10-19T05:57:28.424Z,100.00
2022-10-19T05:59:58.377Z,100.00
2022-10-19T06:02:25.009Z,100.00
2022-10-19T06:04:51.711Z,98.85
2022-10-19T06:07:18.536Z,74.63
2022-10-19T06:09:46.097Z,64.28
2022-10-19T06:12:14.039Z,56.67
2022-10-19T06:14:42.599Z,51.97
2022-10-19T06:17:09.400Z,47.97
2022-10-19T06:19:36.312Z,45.58
2022-10-19T06:22:02.987Z,43.59
2022-10-19T06:24:29.675Z,41.15
2022-10-19T06:26:56.383Z,39.45
2022-10-19T06:29:23.018Z,39.69
2022-10-19T06:31:49.685Z,38.57
2022-10-19T06:34:16.439Z,42.43
2022-10-19T06:36:43.095Z,40.54
2022-10-19T06:39:09.985Z,39.48
2022-10-19T06:41:36.708Z,40.00
2022-10-19T06:44:03.388Z,39.26
2022-10-19T06:46:30.647Z,39.17
2022-10-19T06:49:00.081Z,37.83
2022-10-19T06:51:34.037Z,36.09
2022-10-19T06:54:01.003Z,34.37
2022-10-19T06:56:27.748Z,34.08
2022-10-19T06:58:55.110Z,33.25
2022-10-19T07:01:22.213Z,34.96
2022-10-19T07:03:51.367Z,34.63
2022-10-19T07:06:19.667Z,35.85
2022-10-19T07:08:46.560Z,34.73
2022-10-19T07:11:17.644Z,32.96
2022-10-19T07:13:44.337Z,30.54
2022-10-19T07:16:16.150Z,27.63
2022-10-19T07:18:47.255Z,27.41
2022-10-19T07:21:15.875Z,28.41
2022-10-19T07:23:44.375Z,28.56
2022-10-19T07:26:23.997Z,31.41
2022-10-19T07:28:51.125Z,33.12
2022-10-19T07:31:20.658Z,35.44
2022-10-19T07:33:48.365Z,36.22
2022-10-19T07:36:15.148Z,34.39
2022-10-19T07:38:41.810Z,34.12
2022-10-19T07:41:12.858Z,31.61
2022-10-19T07:43:40.685Z,31.94
2022-10-19T07:46:11.625Z,32.83
2022-10-19T07:48:38.264Z,34.44
2022-10-19T07:51:07.239Z,33.39
2022-10-19T07:53:35.200Z,35.34
2022-10-19T07:56:10.340Z,34.96
2022-10-19T07:58:37.949Z,35.02
2022-10-19T08:01:16.914Z,32.81
2022-10-19T08:04:31.739Z,31.37
2022-10-19T08:06:31.730Z,31.29
2022-10-19T08:08:58.584Z,30.62
2022-10-19T08:11:32.979Z,30.59
2022-10-19T08:14:00.395Z,28.84
2022-10-19T08:16:32.940Z,27.28
2022-10-19T08:19:05.792Z,27.89
2022-10-19T08:21:32.905Z,28.93
2022-10-19T08:24:00.227Z,28.98
2022-10-19T08:26:31.795Z,27.46
2022-10-19T08:29:03.195Z,27.48
2022-10-19T08:31:30.415Z,28.07
2022-10-19T08:33:57.340Z,25.66
2022-10-19T08:36:24.421Z,26.10
2022-10-19T08:38:51.175Z,23.97
2022-10-19T08:41:36.820Z,25.57
2022-10-19T08:44:37.542Z,24.75
2022-10-19T08:47:06.111Z,25.69
2022-10-19T08:49:34.783Z,25.27
2022-10-19T08:52:05.954Z,24.46
2022-10-19T08:54:51.012Z,24.37
2022-10-19T08:57:38.891Z,22.83
2022-10-19T09:00:14.620Z,21.42
2022-10-19T09:03:09.880Z,22.45
2022-10-19T09:06:01.723Z,22.33
2022-10-19T09:08:28.608Z,22.46
2022-10-19T09:10:55.577Z,21.26
2022-10-19T09:13:29.207Z,22.43
2022-10-19T09:16:06.470Z,20.91
2022-10-19T09:18:35.216Z,19.86
2022-10-19T09:21:09.421Z,21.62
2022-10-19T09:23:39.224Z,22.69
2022-10-19T09:26:28.516Z,21.17
2022-10-19T09:29:00.204Z,20.36
2022-10-19T09:31:40.326Z,22.03
2022-10-19T09:34:33.565Z,21.08
2022-10-19T09:37:00.677Z,22.06
2022-10-19T09:39:29.927Z,23.00
2022-10-19T09:42:06.604Z,22.25
2022-10-19T09:44:33.311Z,21.97
2022-10-19T09:47:29.050Z,21.59
2022-10-19T09:50:18.262Z,21.82
2022-10-19T09:52:50.479Z,22.56
2022-10-19T09:55:17.122Z,22.81
2022-10-19T09:57:49.682Z,21.66
2022-10-19T10:00:23.060Z,22.11
2022-10-19T10:02:54.984Z,21.73
2022-10-19T10:05:34.469Z,22.60
2022-10-19T10:08:01.599Z,21.76
2022-10-19T10:10:34.644Z,22.10
2022-10-19T10:13:01.832Z,21.01
2022-10-19T10:15:44.455Z,21.81
2022-10-19T10:18:18.829Z,21.44
2022-10-19T10:21:06.906Z,20.93
2022-10-19T10:23:36.621Z,20.65
2022-10-19T10:26:06.222Z,22.50
2022-10-19T10:28:32.862Z,21.13
2022-10-19T10:31:06.155Z,21.43
2022-10-19T10:36:26.840Z,21.29
2022-10-19T10:39:04.096Z,22.09
2022-10-19T10:41:36.685Z,19.67
2022-10-19T10:44:08.641Z,20.90
2022-10-19T10:46:58.191Z,21.46
2022-10-19T10:49:29.061Z,20.44
2022-10-19T10:52:06.336Z,20.97
2022-10-19T10:54:33.508Z,20.43
2022-10-19T10:57:11.706Z,20.78
2022-10-19T11:00:12.443Z,21.22
2022-10-19T11:03:00.809Z,21.82
2022-10-19T11:05:33.554Z,20.65
2022-10-19T11:08:20.091Z,19.73
2022-10-19T11:10:57.230Z,20.37
2022-10-19T11:13:39.725Z,21.46
2022-10-19T11:16:16.903Z,21.67
2022-10-19T11:19:02.711Z,20.83
2022-10-19T11:21:35.375Z,20.70
2022-10-19T11:24:50.288Z,21.26
2022-10-19T11:27:38.770Z,21.17
2022-10-19T11:30:10.739Z,22.42
2022-10-19T11:32:46.668Z,22.19
2022-10-19T11:35:28.790Z,20.84
2022-10-19T11:38:18.761Z,21.77
2022-10-19T11:41:19.585Z,21.54
2022-10-19T11:44:04.706Z,21.74
2022-10-19T11:46:43.405Z,21.51
2022-10-19T11:49:39.561Z,21.64
2022-10-19T11:52:37.937Z,21.79
2022-10-19T11:55:28.415Z,22.03
2022-10-19T11:58:05.709Z,22.78
2022-10-19T12:00:41.830Z,21.89
2022-10-19T12:03:22.724Z,20.77
2022-10-19T12:06:09.395Z,21.82
2022-10-19T12:08:56.195Z,21.71
2022-10-19T12:11:44.912Z,21.53
2022-10-19T12:14:17.591Z,21.71
2022-10-19T12:16:52.009Z,23.44
2022-10-19T12:19:42.995Z,23.60
2022-10-19T12:22:19.292Z,23.30
2022-10-19T12:24:46.594Z,23.89
2022-10-19T12:27:16.600Z,24.03
2022-10-19T12:29:48.051Z,24.68
2022-10-19T12:32:17.580Z,25.04
2022-10-19T12:34:46.926Z,25.83
2022-10-19T12:37:13.595Z,24.93
2022-10-19T12:40:04.906Z,25.81
2022-10-19T12:43:12.544Z,25.09
2022-10-19T12:46:27.262Z,26.22
2022-10-19T12:49:27.900Z,25.87
2022-10-19T12:51:57.122Z,26.63
2022-10-19T12:54:32.626Z,25.94
2022-10-19T12:57:01.942Z,27.35
2022-10-19T12:59:36.570Z,26.80
2022-10-19T13:02:06.694Z,26.20
2022-10-19T13:04:35.972Z,27.13
2022-10-19T13:07:10.983Z,28.33
2022-10-19T13:09:41.844Z,26.94
2022-10-19T13:12:21.618Z,27.33
2022-10-19T13:14:59.128Z,29.28
2022-10-19T13:17:36.604Z,28.26
2022-10-19T13:20:15.139Z,29.22
2022-10-19T13:22:42.916Z,29.90
2022-10-19T13:25:21.985Z,29.96
2022-10-19T13:27:52.812Z,29.96
2022-10-19T13:30:44.083Z,31.08
2022-10-19T13:33:26.054Z,31.24
2022-10-19T13:36:13.279Z,32.43
2022-10-19T13:38:58.524Z,32.27
2022-10-19T13:41:27.312Z,31.49
2022-10-19T13:44:03.355Z,30.90
2022-10-19T13:46:29.950Z,32.83
2022-10-19T13:49:21.329Z,33.44
2022-10-19T13:52:25.501Z,33.08
2022-10-19T13:55:23.463Z,33.53
2022-10-19T13:58:13.875Z,33.34
2022-10-19T14:01:05.783Z,33.83
2022-10-19T14:03:41.362Z,33.44
2022-10-19T14:06:36.158Z,34.49
2022-10-19T14:09:15.139Z,35.06
2022-10-19T14:11:45.290Z,35.71
2022-10-19T14:14:11.886Z,34.91
2022-10-19T14:16:52.862Z,36.21
2022-10-19T14:19:29.324Z,36.37
2022-10-19T14:21:59.946Z,34.69
2022-10-19T14:24:33.032Z,36.32
2022-10-19T14:27:02.028Z,36.10
2022-10-19T14:29:28.739Z,36.93
2022-10-19T14:31:55.475Z,37.38
2022-10-19T14:34:22.349Z,37.93
2022-10-19T14:36:49.975Z,38.36
2022-10-19T14:39:31.280Z,37.93
2022-10-19T14:42:04.118Z,38.10
2022-10-19T14:44:44.266Z,39.15
2022-10-19T14:47:27.357Z,40.19
2022-10-19T14:49:54.300Z,40.42
2022-10-19T14:52:33.635Z,40.32
2022-10-19T14:55:05.510Z,42.56
2022-10-19T14:57:35.981Z,44.45
2022-10-19T15:00:06.215Z,45.28
2022-10-19T15:02:38.728Z,45.85
2022-10-19T15:05:14.624Z,46.33
2022-10-19T15:07:43.463Z,46.80
2022-10-19T15:10:39.159Z,48.13
2022-10-19T15:13:07.562Z,47.86
2022-10-19T15:15:36.123Z,48.27
2022-10-19T15:18:05.847Z,49.91
2022-10-19T15:20:49.375Z,48.50
2022-10-19T15:23:36.865Z,48.03
2022-10-19T15:26:32.925Z,49.71
2022-10-19T15:29:29.399Z,50.13
2022-10-19T15:31:59.055Z,50.48
2022-10-19T15:34:29.739Z,51.24
2022-10-19T15:36:59.384Z,51.62
2022-10-19T15:39:42.094Z,53.27
2022-10-19T15:42:44.454Z,53.75
2022-10-19T15:45:34.102Z,55.29
2022-10-19T15:48:24.666Z,55.64
2022-10-19T15:50:52.153Z,56.38
2022-10-19T15:53:20.812Z,57.44
2022-10-19T15:55:47.943Z,56.70
2022-10-19T16:01:14.995Z,60.30
2022-10-19T16:03:41.702Z,66.16
2022-10-19T16:06:08.676Z,65.09
2022-10-19T16:08:35.398Z,64.78
2022-10-19T16:11:04.175Z,64.52
2022-10-19T16:13:31.189Z,65.30
2022-10-19T16:16:11.189Z,63.52
2022-10-19T16:18:38.789Z,64.38
2022-10-19T16:21:05.685Z,69.53
2022-10-19T16:23:37.782Z,78.08
2022-10-19T16:26:07.925Z,82.55
2022-10-19T16:28:34.659Z,82.80
2022-10-19T16:31:01.345Z,85.84
2022-10-19T16:33:28.102Z,91.62
2022-10-19T16:35:54.766Z,92.94
2022-10-19T16:38:21.383Z,93.67
2022-10-19T16:40:48.140Z,94.70
2022-10-19T16:43:14.875Z,96.53
2022-10-19T16:45:45.005Z,98.92
2022-10-19T16:48:14.506Z,100.00
2022-10-19T16:50:41.206Z,100.00
2022-10-19T16:53:10.465Z,100.00
2022-10-19T16:55:38.093Z,100.00
2022-10-19T16:58:04.929Z,100.00
2022-10-19T17:00:32.296Z,100.00
2022-10-19T17:02:59.116Z,100.00
2022-10-19T17:05:25.802Z,100.00
2022-10-19T17:07:52.564Z,100.00
2022-10-19T17:10:19.343Z,100.00
2022-10-19T17:12:46.018Z,100.00
2022-10-19T17:17:59.944Z,100.00
2022-10-19T17:20:26.722Z,100.00
2022-10-19T17:22:53.471Z,100.00
2022-10-19T17:25:20.252Z,100.00
2022-10-19T17:27:50.970Z,100.00
2022-10-19T17:30:17.998Z,100.00
2022-10-19T17:32:44.873Z,100.00
2022-10-19T17:35:11.605Z,100.00
2022-10-19T17:37:38.398Z,100.00
2022-10-19T17:40:05.882Z,100.00
2022-10-19T17:42:36.463Z,100.00
2022-10-19T17:45:04.145Z,100.00
2022-10-19T17:47:30.790Z,100.00
2022-10-19T17:49:57.532Z,100.00
2022-10-19T17:52:24.164Z,100.00
2022-10-19T17:55:11.049Z,100.00
2022-10-19T17:57:37.834Z,100.00
2022-10-19T18:00:07.083Z,100.00
2022-10-19T18:02:35.630Z,100.00
2022-10-19T18:05:04.689Z,100.00
2022-10-19T18:07:32.313Z,100.00
2022-10-19T18:09:59.107Z,100.00
2022-10-19T18:12:26.769Z,100.00
2022-10-19T18:14:53.536Z,100.00
2022-10-19T18:17:24.063Z,100.00
2022-10-19T18:19:53.681Z,100.00
2022-10-19T18:22:21.885Z,100.00
2022-10-19T18:24:49.635Z,100.00
2022-10-19T18:27:16.274Z,100.00
2022-10-19T18:29:43.750Z,100.00
2022-10-19T18:32:11.693Z,100.00
2022-10-19T18:34:38.763Z,100.00
2022-10-19T18:37:05.622Z,100.00
2022-10-19T18:39:32.325Z,100.00
2022-10-19T18:41:59.000Z,100.00
2022-10-19T18:44:27.852Z,100.00
2022-10-19T18:46:56.482Z,100.00
2022-10-19T18:49:24.945Z,100.00
2022-10-19T18:51:55.162Z,100.00
2022-10-19T18:54:23.168Z,100.00
2022-10-19T18:56:49.970Z,100.00
2022-10-19T18:59:16.849Z,100.00
2022-10-19T19:01:43.816Z,100.00
2022-10-19T19:04:10.995Z,100.00
2022-10-19T19:06:38.683Z,100.00
2022-10-19T19:09:08.928Z,100.00
2022-10-19T19:11:38.245Z,100.00
2022-10-19T19:14:13.731Z,100.00
2022-10-19T19:16:41.314Z,100.00
2022-10-19T19:19:08.928Z,100.00
2022-10-19T19:21:36.696Z,100.00
2022-10-19T19:24:05.592Z,100.00
2022-10-19T19:26:35.604Z,100.00
2022-10-19T19:29:02.691Z,100.00
2022-10-19T19:31:29.643Z,100.00
2022-10-19T19:33:59.029Z,100.00
2022-10-19T19:36:25.740Z,100.00
2022-10-19T19:38:53.963Z,100.00
2022-10-19T19:41:20.761Z,100.00
2022-10-19T19:43:47.606Z,100.00
2022-10-19T19:46:17.423Z,100.00
2022-10-19T19:48:47.067Z,96.63
2022-10-19T19:51:16.862Z,100.00
2022-10-19T19:53:44.402Z,100.00
2022-10-19T19:56:12.723Z,100.00
2022-10-19T19:58:41.058Z,100.00
2022-10-19T20:01:12.295Z,100.00
2022-10-19T20:03:40.815Z,100.00
2022-10-19T20:06:07.707Z,100.00
2022-10-19T20:08:36.317Z,100.00
2022-10-19T20:11:09.119Z,100.00
2022-10-19T20:13:36.437Z,100.00
2022-10-19T20:16:33.468Z,100.00
2022-10-19T20:19:11.892Z,100.00
2022-10-19T20:21:39.310Z,100.00
2022-10-19T20:24:06.955Z,100.00
2022-10-19T20:26:33.728Z,100.00
2022-10-19T20:29:02.752Z,100.00
2022-10-19T20:31:31.568Z,100.00
2022-10-19T20:33:58.342Z,100.00
2022-10-19T20:36:26.243Z,100.00
2022-10-19T20:38:57.602Z,100.00
2022-10-19T20:41:26.617Z,100.00
2022-10-19T20:43:54.378Z,100.00
2022-10-19T20:46:23.935Z,100.00
2022-10-19T20:48:51.462Z,100.00
2022-10-19T20:51:31.977Z,100.00
2022-10-19T20:54:02.266Z,100.00
2022-10-19T20:56:32.169Z,100.00
2022-10-19T20:59:04.559Z,100.00
2022-10-19T21:01:33.964Z,100.00
2022-10-19T21:04:03.372Z,100.00
2022-10-19T21:06:32.644Z,100.00
2022-10-19T21:09:00.717Z,100.00
2022-10-19T21:11:30.021Z,100.00
2022-10-19T21:13:59.268Z,100.00
2022-10-19T21:16:30.422Z,100.00
2022-10-19T21:18:57.487Z,100.00
2022-10-19T21:21:27.325Z,100.00
2022-10-19T21:23:57.107Z,100.00
2022-10-19T21:26:28.699Z,100.00
2022-10-19T21:28:55.888Z,100.00
2022-10-19T21:31:24.675Z,100.00
2022-10-19T21:33:51.832Z,100.00
2022-10-19T21:36:19.755Z,100.00
2022-10-19T21:38:46.786Z,100.00
2022-10-19T21:41:16.360Z,100.00
2022-10-19T21:43:43.103Z,100.00
2022-10-19T21:46:15.255Z,100.00
2022-10-19T21:48:42.729Z,100.00
2022-10-19T21:51:40.776Z,100.00
2022-10-19T21:56:37.445Z,100.00
2022-10-19T21:59:04.534Z,100.00
2022-10-19T22:01:37.300Z,100.00
2022-10-19T22:04:08.634Z,100.00
2022-10-19T22:06:36.586Z,100.00
2022-10-19T22:09:06.375Z,100.00
2022-10-19T22:11:33.253Z,100.00
2022-10-19T22:14:02.381Z,100.00
2022-10-19T22:16:30.634Z,100.00
2022-10-19T22:18:57.372Z,100.00
2022-10-19T22:21:27.873Z,100.00
2022-10-19T22:24:00.792Z,100.00
2022-10-19T22:26:33.284Z,100.00
2022-10-19T22:29:01.055Z,100.00
2022-10-19T22:31:29.737Z,100.00
2022-10-19T22:33:56.605Z,100.00
2022-10-19T22:36:24.775Z,100.00
2022-10-19T22:38:51.561Z,100.00
2022-10-19T22:41:18.201Z,100.00
2022-10-19T22:43:44.878Z,100.00
2022-10-19T22:46:11.574Z,100.00
2022-10-19T22:48:38.192Z,100.00
2022-10-19T22:51:05.361Z,100.00
2022-10-19T22:53:32.058Z,100.00
2022-10-19T22:55:58.717Z,100.00
2022-10-19T22:58:25.417Z,100.00
2022-10-19T23:01:03.566Z,100.00
2022-10-19T23:03:30.428Z,100.00
2022-10-19T23:05:57.182Z,100.00
2022-10-19T23:08:24.158Z,100.00
2022-10-19T23:10:50.899Z,100.00
2022-10-19T23:13:17.688Z,100.00
2022-10-19T23:15:45.330Z,100.00
2022-10-19T23:18:12.844Z,100.00
2022-10-19T23:20:39.610Z,100.00
2022-10-19T23:23:06.418Z,100.00
2022-10-19T23:25:33.223Z,100.00
2022-10-19T23:28:00.022Z,100.00
2022-10-19T23:30:26.967Z,100.00
2022-10-19T23:32:53.594Z,100.00
2022-10-19T23:35:20.292Z,100.00
2022-10-19T23:37:46.895Z,100.00
2022-10-19T23:40:13.604Z,100.00
2022-10-19T23:42:40.230Z,100.00
2022-10-19T23:45:07.511Z,100.00
2022-10-19T23:47:34.518Z,100.00
2022-10-19T23:50:01.580Z,100.00
2022-10-19T23:52:28.208Z,100.00
2022-10-19T23:54:54.953Z,100.00
2022-10-19T23:57:21.850Z,100.00
2022-10-19T23:59:48.488Z,100.00
